Flight NumberIRM071 Date09.06.2018
Departure AirportOIIE Arrival AirportVIDP
Departure Time20.34Arrival Time23.53
Pilot In CommandSaeed TabaTabaei Block Time3.30 Hours
Pilot Rating100 % AircraftEP-MNF [ A310-300ET ]


Distance1,381.00 Nm. Passengers202
Fuel Used16,210 Kg. Cargo16689 Kg
Expense Details Income Details
Fuel Cost16,707 v$Ticket Sales37,370 v$
Pilot Salary5,679 v$ Cargo income29,367.00 v$
Crew Salary1,010 v$ Bonus9,466 v$
Gross Profit51,119 v$ ( 511,190 v$ )

Client Versionv2.2.0.rc3 Max Simrate1
Flight Critique Pilot CommentsVIDP 082200Z 13010KT 3000 HZ FEW100 32/24 Q0996 NOSIG //LKA2B ILS RWY 10

[ Back ]
FSA VA Integration Pack
Copyright © 2010 FSAirlines.net. Version : 0.1.1